Terminal Aerodrome Forecast
Issued by NWS Sioux Falls, SD

Home | Current Version | Previous Version | Text Only | Print | Product List | Glossary On
Versions: 1 2 3 4 5 6 7 8 9 10 11 12 13 14 15 16 17 18 19 20 21 22 23 24 25 26 27 28 29 30 31 32
000
FTUS43 KFSD 061829 AAA
TAFSUX
TAF AMD
KSUX 061829Z 0618/0718 36014G20KT 6SM FU BKN035
      TEMPO 0618/0620 -RA BKN020 BKN070
     FM062000 36014G20KT 6SM FU SCT035 BKN050
     FM070200 35008KT P6SM SKC
     FM070900 35004KT 5SM BR SKC
     FM071400 02007KT P6SM SKC=

USA.gov is the U.S. government's official web portal to all federal, state and local government web resources and services.